sensor_id;sensor_type;location;lat;lon;timestamp;P1;durP1;ratioP1;P2;durP2;ratioP2
20179;SDS011;10249;48.900;9.090;2023-03-14T00:01:10;3.40;;;3.30;;
20179;SDS011;10249;48.900;9.090;2023-03-14T00:03:37;3.60;;;3.50;;
20179;SDS011;10249;48.900;9.090;2023-03-14T00:06:05;3.70;;;3.60;;
20179;SDS011;10249;48.900;9.090;2023-03-14T00:08:32;3.70;;;3.60;;
20179;SDS011;10249;48.900;9.090;2023-03-14T00:11:04;4.10;;;4.00;;
20179;SDS011;10249;48.900;9.090;2023-03-14T00:13:32;4.00;;;3.80;;
20179;SDS011;10249;48.900;9.090;2023-03-14T00:16:03;4.40;;;4.20;;
20179;SDS011;10249;48.900;9.090;2023-03-14T00:18:30;18.33;;;4.87;;
20179;SDS011;10249;48.900;9.090;2023-03-14T00:20:57;4.30;;;4.20;;
20179;SDS011;10249;48.900;9.090;2023-03-14T00:23:24;4.57;;;4.37;;
20179;SDS011;10249;48.900;9.090;2023-03-14T00:25:51;4.30;;;4.20;;
20179;SDS011;10249;48.900;9.090;2023-03-14T00:28:20;4.30;;;4.10;;
20179;SDS011;10249;48.900;9.090;2023-03-14T00:30:47;4.30;;;4.20;;
20179;SDS011;10249;48.900;9.090;2023-03-14T00:33:14;4.70;;;4.50;;
20179;SDS011;10249;48.900;9.090;2023-03-14T00:35:41;4.70;;;4.50;;
20179;SDS011;10249;48.900;9.090;2023-03-14T00:38:08;4.50;;;4.30;;
20179;SDS011;10249;48.900;9.090;2023-03-14T00:40:38;6.10;;;4.47;;
20179;SDS011;10249;48.900;9.090;2023-03-14T00:43:05;4.70;;;4.50;;
20179;SDS011;10249;48.900;9.090;2023-03-14T00:45:33;4.00;;;3.90;;
20179;SDS011;10249;48.900;9.090;2023-03-14T00:48:01;4.30;;;4.20;;
20179;SDS011;10249;48.900;9.090;2023-03-14T00:50:28;4.10;;;4.00;;
20179;SDS011;10249;48.900;9.090;2023-03-14T00:52:55;5.60;;;5.40;;
20179;SDS011;10249;48.900;9.090;2023-03-14T00:55:22;4.30;;;4.20;;
20179;SDS011;10249;48.900;9.090;2023-03-14T00:57:49;4.60;;;4.50;;
20179;SDS011;10249;48.900;9.090;2023-03-14T01:00:16;4.33;;;4.23;;
20179;SDS011;10249;48.900;9.090;2023-03-14T01:02:45;4.53;;;4.43;;
20179;SDS011;10249;48.900;9.090;2023-03-14T01:05:12;4.30;;;4.20;;
20179;SDS011;10249;48.900;9.090;2023-03-14T01:07:39;4.57;;;4.47;;
20179;SDS011;10249;48.900;9.090;2023-03-14T01:10:06;4.97;;;4.77;;
20179;SDS011;10249;48.900;9.090;2023-03-14T01:12:33;5.23;;;4.53;;
20179;SDS011;10249;48.900;9.090;2023-03-14T01:15:00;4.20;;;4.10;;
20179;SDS011;10249;48.900;9.090;2023-03-14T01:17:28;4.40;;;4.30;;
20179;SDS011;10249;48.900;9.090;2023-03-14T01:19:56;4.27;;;4.17;;
20179;SDS011;10249;48.900;9.090;2023-03-14T01:22:23;4.87;;;4.60;;
20179;SDS011;10249;48.900;9.090;2023-03-14T01:24:50;4.40;;;4.30;;
20179;SDS011;10249;48.900;9.090;2023-03-14T01:27:17;4.60;;;4.40;;
20179;SDS011;10249;48.900;9.090;2023-03-14T01:29:44;4.10;;;4.00;;
20179;SDS011;10249;48.900;9.090;2023-03-14T01:32:12;4.43;;;4.33;;
20179;SDS011;10249;48.900;9.090;2023-03-14T01:34:39;4.60;;;4.50;;
20179;SDS011;10249;48.900;9.090;2023-03-14T01:37:08;4.73;;;4.53;;
20179;SDS011;10249;48.900;9.090;2023-03-14T01:39:36;4.80;;;4.70;;
20179;SDS011;10249;48.900;9.090;2023-03-14T01:42:04;5.10;;;4.90;;
20179;SDS011;10249;48.900;9.090;2023-03-14T01:44:46;4.70;;;4.60;;
20179;SDS011;10249;48.900;9.090;2023-03-14T01:47:13;5.00;;;4.80;;
20179;SDS011;10249;48.900;9.090;2023-03-14T01:49:40;5.37;;;5.17;;
20179;SDS011;10249;48.900;9.090;2023-03-14T01:52:09;5.60;;;5.40;;
20179;SDS011;10249;48.900;9.090;2023-03-14T01:54:37;5.40;;;5.20;;
20179;SDS011;10249;48.900;9.090;2023-03-14T01:57:06;5.60;;;5.40;;
20179;SDS011;10249;48.900;9.090;2023-03-14T01:59:35;5.90;;;5.70;;
20179;SDS011;10249;48.900;9.090;2023-03-14T02:02:04;5.60;;;5.40;;
20179;SDS011;10249;48.900;9.090;2023-03-14T02:04:33;6.10;;;5.90;;
20179;SDS011;10249;48.900;9.090;2023-03-14T02:07:03;6.37;;;6.17;;
20179;SDS011;10249;48.900;9.090;2023-03-14T02:09:32;6.00;;;5.80;;
20179;SDS011;10249;48.900;9.090;2023-03-14T02:11:59;5.70;;;5.50;;
20179;SDS011;10249;48.900;9.090;2023-03-14T02:14:28;5.90;;;5.70;;
20179;SDS011;10249;48.900;9.090;2023-03-14T02:16:56;6.13;;;5.93;;
20179;SDS011;10249;48.900;9.090;2023-03-14T02:19:26;6.20;;;6.00;;
20179;SDS011;10249;48.900;9.090;2023-03-14T02:21:56;6.30;;;6.10;;
20179;SDS011;10249;48.900;9.090;2023-03-14T02:24:25;6.80;;;6.60;;
20179;SDS011;10249;48.900;9.090;2023-03-14T02:27:06;7.03;;;6.67;;
20179;SDS011;10249;48.900;9.090;2023-03-14T02:29:33;7.00;;;6.80;;
20179;SDS011;10249;48.900;9.090;2023-03-14T02:32:03;7.00;;;6.70;;
20179;SDS011;10249;48.900;9.090;2023-03-14T02:34:30;7.10;;;6.90;;
20179;SDS011;10249;48.900;9.090;2023-03-14T02:36:58;6.90;;;6.70;;
20179;SDS011;10249;48.900;9.090;2023-03-14T02:39:26;7.00;;;6.80;;
20179;SDS011;10249;48.900;9.090;2023-03-14T02:41:55;6.97;;;6.77;;
20179;SDS011;10249;48.900;9.090;2023-03-14T02:44:23;7.43;;;7.23;;
20179;SDS011;10249;48.900;9.090;2023-03-14T02:46:51;7.50;;;7.20;;
20179;SDS011;10249;48.900;9.090;2023-03-14T02:49:18;7.20;;;7.00;;
20179;SDS011;10249;48.900;9.090;2023-03-14T02:51:45;7.27;;;7.07;;
20179;SDS011;10249;48.900;9.090;2023-03-14T02:54:12;7.10;;;6.90;;
20179;SDS011;10249;48.900;9.090;2023-03-14T02:56:40;7.60;;;7.30;;
20179;SDS011;10249;48.900;9.090;2023-03-14T02:59:07;7.63;;;7.33;;
20179;SDS011;10249;48.900;9.090;2023-03-14T03:01:35;7.43;;;7.20;;
20179;SDS011;10249;48.900;9.090;2023-03-14T03:04:03;7.20;;;7.00;;
20179;SDS011;10249;48.900;9.090;2023-03-14T03:06:30;7.20;;;7.00;;
20179;SDS011;10249;48.900;9.090;2023-03-14T03:08:57;7.10;;;6.90;;
20179;SDS011;10249;48.900;9.090;2023-03-14T03:11:24;7.00;;;6.70;;
20179;SDS011;10249;48.900;9.090;2023-03-14T03:13:51;6.73;;;6.43;;
20179;SDS011;10249;48.900;9.090;2023-03-14T03:16:18;6.50;;;6.30;;
20179;SDS011;10249;48.900;9.090;2023-03-14T03:18:46;6.70;;;6.50;;
20179;SDS011;10249;48.900;9.090;2023-03-14T03:21:13;6.53;;;6.30;;
20179;SDS011;10249;48.900;9.090;2023-03-14T03:23:41;6.30;;;6.10;;
20179;SDS011;10249;48.900;9.090;2023-03-14T03:26:09;6.40;;;6.20;;
20179;SDS011;10249;48.900;9.090;2023-03-14T03:28:36;7.07;;;6.87;;
20179;SDS011;10249;48.900;9.090;2023-03-14T03:31:06;6.73;;;6.53;;
20179;SDS011;10249;48.900;9.090;2023-03-14T03:33:33;6.80;;;6.60;;
20179;SDS011;10249;48.900;9.090;2023-03-14T03:36:02;7.10;;;6.90;;
20179;SDS011;10249;48.900;9.090;2023-03-14T03:38:29;7.10;;;6.80;;
20179;SDS011;10249;48.900;9.090;2023-03-14T03:40:56;7.17;;;6.97;;
20179;SDS011;10249;48.900;9.090;2023-03-14T03:43:23;7.40;;;7.10;;
20179;SDS011;10249;48.900;9.090;2023-03-14T03:45:50;7.67;;;7.27;;
20179;SDS011;10249;48.900;9.090;2023-03-14T03:48:17;7.33;;;7.13;;
20179;SDS011;10249;48.900;9.090;2023-03-14T03:50:44;7.20;;;7.00;;
20179;SDS011;10249;48.900;9.090;2023-03-14T03:53:13;7.10;;;6.90;;
20179;SDS011;10249;48.900;9.090;2023-03-14T03:55:40;7.73;;;7.33;;
20179;SDS011;10249;48.900;9.090;2023-03-14T03:58:08;7.50;;;7.30;;
20179;SDS011;10249;48.900;9.090;2023-03-14T04:00:35;8.00;;;7.70;;
20179;SDS011;10249;48.900;9.090;2023-03-14T04:03:02;7.50;;;7.30;;
20179;SDS011;10249;48.900;9.090;2023-03-14T04:05:29;7.83;;;7.57;;
20179;SDS011;10249;48.900;9.090;2023-03-14T04:07:56;8.10;;;7.80;;
20179;SDS011;10249;48.900;9.090;2023-03-14T04:10:24;7.80;;;7.60;;
20179;SDS011;10249;48.900;9.090;2023-03-14T04:12:51;8.50;;;7.70;;
20179;SDS011;10249;48.900;9.090;2023-03-14T04:15:18;8.57;;;8.27;;
20179;SDS011;10249;48.900;9.090;2023-03-14T04:17:45;8.10;;;7.80;;
20179;SDS011;10249;48.900;9.090;2023-03-14T04:20:13;7.90;;;7.70;;
20179;SDS011;10249;48.900;9.090;2023-03-14T04:22:40;8.20;;;7.90;;
20179;SDS011;10249;48.900;9.090;2023-03-14T04:25:07;9.00;;;8.40;;
20179;SDS011;10249;48.900;9.090;2023-03-14T04:27:36;8.67;;;8.37;;
20179;SDS011;10249;48.900;9.090;2023-03-14T04:30:03;8.30;;;8.00;;
20179;SDS011;10249;48.900;9.090;2023-03-14T04:32:30;8.23;;;7.93;;
20179;SDS011;10249;48.900;9.090;2023-03-14T04:34:57;8.40;;;8.10;;
20179;SDS011;10249;48.900;9.090;2023-03-14T04:37:24;8.30;;;8.00;;
20179;SDS011;10249;48.900;9.090;2023-03-14T04:39:51;8.53;;;8.23;;
20179;SDS011;10249;48.900;9.090;2023-03-14T04:42:18;8.70;;;8.40;;
20179;SDS011;10249;48.900;9.090;2023-03-14T04:44:47;8.90;;;8.60;;
20179;SDS011;10249;48.900;9.090;2023-03-14T04:47:15;8.73;;;8.43;;
20179;SDS011;10249;48.900;9.090;2023-03-14T04:49:42;8.60;;;8.30;;
20179;SDS011;10249;48.900;9.090;2023-03-14T04:52:09;8.50;;;8.20;;
20179;SDS011;10249;48.900;9.090;2023-03-14T04:54:36;8.40;;;8.10;;
20179;SDS011;10249;48.900;9.090;2023-03-14T04:57:03;8.60;;;8.30;;
20179;SDS011;10249;48.900;9.090;2023-03-14T04:59:30;8.53;;;8.23;;
20179;SDS011;10249;48.900;9.090;2023-03-14T05:01:58;8.70;;;8.40;;
20179;SDS011;10249;48.900;9.090;2023-03-14T05:04:25;9.30;;;9.00;;
20179;SDS011;10249;48.900;9.090;2023-03-14T05:06:52;9.20;;;8.70;;
20179;SDS011;10249;48.900;9.090;2023-03-14T05:09:19;9.60;;;9.27;;
20179;SDS011;10249;48.900;9.090;2023-03-14T05:11:47;8.87;;;8.57;;
20179;SDS011;10249;48.900;9.090;2023-03-14T05:14:14;9.23;;;8.93;;
20179;SDS011;10249;48.900;9.090;2023-03-14T05:16:41;9.10;;;8.80;;
20179;SDS011;10249;48.900;9.090;2023-03-14T05:19:09;9.60;;;9.20;;
20179;SDS011;10249;48.900;9.090;2023-03-14T05:21:36;9.20;;;8.90;;
20179;SDS011;10249;48.900;9.090;2023-03-14T05:24:03;9.10;;;8.80;;
20179;SDS011;10249;48.900;9.090;2023-03-14T05:26:31;9.30;;;9.00;;
20179;SDS011;10249;48.900;9.090;2023-03-14T05:28:58;9.07;;;8.77;;
20179;SDS011;10249;48.900;9.090;2023-03-14T05:31:25;9.10;;;8.80;;
20179;SDS011;10249;48.900;9.090;2023-03-14T05:33:52;9.80;;;9.33;;
20179;SDS011;10249;48.900;9.090;2023-03-14T05:36:20;9.70;;;9.40;;
20179;SDS011;10249;48.900;9.090;2023-03-14T05:38:47;9.47;;;9.17;;
20179;SDS011;10249;48.900;9.090;2023-03-14T05:41:14;9.80;;;9.43;;
20179;SDS011;10249;48.900;9.090;2023-03-14T05:43:41;9.47;;;9.17;;
20179;SDS011;10249;48.900;9.090;2023-03-14T05:46:08;9.40;;;9.10;;
20179;SDS011;10249;48.900;9.090;2023-03-14T05:48:35;9.20;;;8.90;;
20179;SDS011;10249;48.900;9.090;2023-03-14T05:51:03;9.37;;;9.07;;
20179;SDS011;10249;48.900;9.090;2023-03-14T05:53:31;9.70;;;9.40;;
20179;SDS011;10249;48.900;9.090;2023-03-14T05:55:58;9.23;;;8.93;;
20179;SDS011;10249;48.900;9.090;2023-03-14T05:58:25;9.30;;;9.00;;
20179;SDS011;10249;48.900;9.090;2023-03-14T06:00:52;9.80;;;9.40;;
20179;SDS011;10249;48.900;9.090;2023-03-14T06:03:19;9.63;;;9.33;;
20179;SDS011;10249;48.900;9.090;2023-03-14T06:05:49;9.70;;;9.40;;
20179;SDS011;10249;48.900;9.090;2023-03-14T06:08:16;9.80;;;9.40;;
20179;SDS011;10249;48.900;9.090;2023-03-14T06:10:44;9.70;;;9.37;;
20179;SDS011;10249;48.900;9.090;2023-03-14T06:13:11;10.30;;;9.90;;
20179;SDS011;10249;48.900;9.090;2023-03-14T06:15:40;9.97;;;9.57;;
20179;SDS011;10249;48.900;9.090;2023-03-14T06:18:07;9.97;;;9.57;;
20179;SDS011;10249;48.900;9.090;2023-03-14T06:20:35;10.20;;;9.80;;
20179;SDS011;10249;48.900;9.090;2023-03-14T06:23:04;10.23;;;9.73;;
20179;SDS011;10249;48.900;9.090;2023-03-14T06:25:31;10.20;;;9.80;;
20179;SDS011;10249;48.900;9.090;2023-03-14T06:27:59;10.00;;;9.60;;
20179;SDS011;10249;48.900;9.090;2023-03-14T06:30:27;9.87;;;9.57;;
20179;SDS011;10249;48.900;9.090;2023-03-14T06:32:54;9.50;;;9.20;;
20179;SDS011;10249;48.900;9.090;2023-03-14T06:35:21;9.90;;;9.50;;
20179;SDS011;10249;48.900;9.090;2023-03-14T06:37:48;9.80;;;9.40;;
20179;SDS011;10249;48.900;9.090;2023-03-14T06:40:15;9.70;;;9.30;;
20179;SDS011;10249;48.900;9.090;2023-03-14T06:42:43;9.70;;;9.27;;
20179;SDS011;10249;48.900;9.090;2023-03-14T06:45:11;9.20;;;8.90;;
20179;SDS011;10249;48.900;9.090;2023-03-14T06:47:39;9.20;;;8.90;;
20179;SDS011;10249;48.900;9.090;2023-03-14T06:50:06;9.50;;;9.20;;
20179;SDS011;10249;48.900;9.090;2023-03-14T06:52:33;9.53;;;9.13;;
20179;SDS011;10249;48.900;9.090;2023-03-14T06:55:01;10.43;;;9.82;;
20179;SDS011;10249;48.900;9.090;2023-03-14T06:57:28;10.10;;;9.50;;
20179;SDS011;10249;48.900;9.090;2023-03-14T06:59:55;9.30;;;9.00;;
20179;SDS011;10249;48.900;9.090;2023-03-14T07:02:24;9.70;;;9.40;;
20179;SDS011;10249;48.900;9.090;2023-03-14T07:04:51;10.60;;;10.20;;
20179;SDS011;10249;48.900;9.090;2023-03-14T07:07:18;10.13;;;9.73;;
20179;SDS011;10249;48.900;9.090;2023-03-14T07:09:45;10.60;;;10.20;;
20179;SDS011;10249;48.900;9.090;2023-03-14T07:12:12;10.70;;;10.27;;
20179;SDS011;10249;48.900;9.090;2023-03-14T07:14:39;10.50;;;10.10;;
20179;SDS011;10249;48.900;9.090;2023-03-14T07:17:06;10.57;;;10.17;;
20179;SDS011;10249;48.900;9.090;2023-03-14T07:19:35;10.87;;;10.47;;
20179;SDS011;10249;48.900;9.090;2023-03-14T07:22:02;11.00;;;10.60;;
20179;SDS011;10249;48.900;9.090;2023-03-14T07:24:30;11.60;;;10.80;;
20179;SDS011;10249;48.900;9.090;2023-03-14T07:26:57;11.13;;;10.53;;
20179;SDS011;10249;48.900;9.090;2023-03-14T07:29:24;10.80;;;10.40;;
20179;SDS011;10249;48.900;9.090;2023-03-14T07:31:51;10.60;;;10.20;;
20179;SDS011;10249;48.900;9.090;2023-03-14T07:34:18;11.10;;;10.70;;
20179;SDS011;10249;48.900;9.090;2023-03-14T07:36:46;11.60;;;11.00;;
20179;SDS011;10249;48.900;9.090;2023-03-14T07:39:13;11.20;;;10.80;;
20179;SDS011;10249;48.900;9.090;2023-03-14T07:41:40;11.67;;;11.17;;
20179;SDS011;10249;48.900;9.090;2023-03-14T07:44:08;12.00;;;11.40;;
20179;SDS011;10249;48.900;9.090;2023-03-14T07:46:35;12.30;;;11.80;;
20179;SDS011;10249;48.900;9.090;2023-03-14T07:49:02;11.60;;;11.10;;
20179;SDS011;10249;48.900;9.090;2023-03-14T07:51:29;11.37;;;10.87;;
20179;SDS011;10249;48.900;9.090;2023-03-14T07:53:57;12.37;;;11.73;;
20179;SDS011;10249;48.900;9.090;2023-03-14T07:56:24;12.10;;;11.50;;
20179;SDS011;10249;48.900;9.090;2023-03-14T07:58:51;12.60;;;11.83;;
20179;SDS011;10249;48.900;9.090;2023-03-14T08:01:18;12.30;;;11.60;;
20179;SDS011;10249;48.900;9.090;2023-03-14T08:03:45;12.17;;;11.67;;
20179;SDS011;10249;48.900;9.090;2023-03-14T08:06:12;12.03;;;11.53;;
20179;SDS011;10249;48.900;9.090;2023-03-14T08:08:39;12.20;;;11.70;;
20179;SDS011;10249;48.900;9.090;2023-03-14T08:11:08;12.23;;;11.73;;
20179;SDS011;10249;48.900;9.090;2023-03-14T08:13:35;12.03;;;11.53;;
20179;SDS011;10249;48.900;9.090;2023-03-14T08:16:02;12.20;;;11.60;;
20179;SDS011;10249;48.900;9.090;2023-03-14T08:18:30;12.40;;;11.90;;
20179;SDS011;10249;48.900;9.090;2023-03-14T08:20:57;12.77;;;12.17;;
20179;SDS011;10249;48.900;9.090;2023-03-14T08:23:24;12.83;;;12.23;;
20179;SDS011;10249;48.900;9.090;2023-03-14T08:25:51;13.17;;;12.67;;
20179;SDS011;10249;48.900;9.090;2023-03-14T08:28:20;12.70;;;12.10;;
20179;SDS011;10249;48.900;9.090;2023-03-14T08:30:47;13.00;;;12.40;;
20179;SDS011;10249;48.900;9.090;2023-03-14T08:33:14;13.30;;;12.80;;
20179;SDS011;10249;48.900;9.090;2023-03-14T08:35:41;12.90;;;12.40;;
20179;SDS011;10249;48.900;9.090;2023-03-14T08:38:08;13.20;;;12.60;;
20179;SDS011;10249;48.900;9.090;2023-03-14T08:40:35;13.70;;;13.00;;
20179;SDS011;10249;48.900;9.090;2023-03-14T08:43:02;13.40;;;12.80;;
20179;SDS011;10249;48.900;9.090;2023-03-14T08:45:31;13.10;;;12.60;;
20179;SDS011;10249;48.900;9.090;2023-03-14T08:47:58;13.47;;;12.87;;
20179;SDS011;10249;48.900;9.090;2023-03-14T08:50:25;13.07;;;12.50;;
20179;SDS011;10249;48.900;9.090;2023-03-14T08:52:52;13.17;;;12.57;;
20179;SDS011;10249;48.900;9.090;2023-03-14T08:55:19;12.93;;;12.43;;
20179;SDS011;10249;48.900;9.090;2023-03-14T08:57:46;13.60;;;13.00;;
20179;SDS011;10249;48.900;9.090;2023-03-14T09:00:14;13.70;;;13.10;;
20179;SDS011;10249;48.900;9.090;2023-03-14T09:02:43;13.47;;;12.87;;
20179;SDS011;10249;48.900;9.090;2023-03-14T09:05:10;13.40;;;12.80;;
20179;SDS011;10249;48.900;9.090;2023-03-14T09:07:38;13.13;;;12.43;;
20179;SDS011;10249;48.900;9.090;2023-03-14T09:10:05;13.00;;;12.40;;
20179;SDS011;10249;48.900;9.090;2023-03-14T09:12:32;12.60;;;12.10;;
20179;SDS011;10249;48.900;9.090;2023-03-14T09:14:59;12.60;;;12.10;;
20179;SDS011;10249;48.900;9.090;2023-03-14T09:17:27;12.20;;;11.70;;
20179;SDS011;10249;48.900;9.090;2023-03-14T09:19:55;12.37;;;11.87;;
20179;SDS011;10249;48.900;9.090;2023-03-14T09:22:22;12.90;;;12.30;;
20179;SDS011;10249;48.900;9.090;2023-03-14T09:24:49;12.70;;;12.10;;
20179;SDS011;10249;48.900;9.090;2023-03-14T09:27:16;12.20;;;11.70;;
20179;SDS011;10249;48.900;9.090;2023-03-14T09:29:43;11.87;;;11.37;;
20179;SDS011;10249;48.900;9.090;2023-03-14T09:32:10;11.90;;;11.40;;
20179;SDS011;10249;48.900;9.090;2023-03-14T09:34:37;11.80;;;11.30;;
20179;SDS011;10249;48.900;9.090;2023-03-14T09:37:06;11.83;;;11.27;;
20179;SDS011;10249;48.900;9.090;2023-03-14T09:39:33;11.80;;;11.30;;
20179;SDS011;10249;48.900;9.090;2023-03-14T09:42:01;11.90;;;11.40;;
20179;SDS011;10249;48.900;9.090;2023-03-14T09:44:30;11.77;;;11.27;;
20179;SDS011;10249;48.900;9.090;2023-03-14T09:47:00;11.90;;;11.40;;
20179;SDS011;10249;48.900;9.090;2023-03-14T09:49:28;11.80;;;11.30;;
20179;SDS011;10249;48.900;9.090;2023-03-14T09:51:56;11.60;;;11.10;;
20179;SDS011;10249;48.900;9.090;2023-03-14T09:54:29;11.70;;;11.20;;
20179;SDS011;10249;48.900;9.090;2023-03-14T09:56:57;12.00;;;11.50;;
20179;SDS011;10249;48.900;9.090;2023-03-14T09:59:24;12.80;;;11.90;;
20179;SDS011;10249;48.900;9.090;2023-03-14T10:01:52;11.87;;;11.37;;
20179;SDS011;10249;48.900;9.090;2023-03-14T10:04:21;12.07;;;11.57;;
20179;SDS011;10249;48.900;9.090;2023-03-14T10:06:49;12.00;;;11.50;;
20179;SDS011;10249;48.900;9.090;2023-03-14T10:09:17;12.83;;;11.90;;
20179;SDS011;10249;48.900;9.090;2023-03-14T10:11:51;12.13;;;11.63;;
20179;SDS011;10249;48.900;9.090;2023-03-14T10:14:27;12.00;;;11.50;;
20179;SDS011;10249;48.900;9.090;2023-03-14T10:16:55;12.20;;;11.70;;
20179;SDS011;10249;48.900;9.090;2023-03-14T10:19:30;12.60;;;12.10;;
20179;SDS011;10249;48.900;9.090;2023-03-14T10:22:00;12.40;;;11.90;;
20179;SDS011;10249;48.900;9.090;2023-03-14T10:24:28;12.17;;;11.67;;
20179;SDS011;10249;48.900;9.090;2023-03-14T10:26:59;12.30;;;11.80;;
20179;SDS011;10249;48.900;9.090;2023-03-14T10:29:27;12.37;;;11.87;;
20179;SDS011;10249;48.900;9.090;2023-03-14T10:31:55;12.23;;;11.73;;
20179;SDS011;10249;48.900;9.090;2023-03-14T10:34:23;12.47;;;11.93;;
20179;SDS011;10249;48.900;9.090;2023-03-14T10:36:55;12.20;;;11.70;;
20179;SDS011;10249;48.900;9.090;2023-03-14T10:39:24;12.23;;;11.73;;
20179;SDS011;10249;48.900;9.090;2023-03-14T10:41:52;12.80;;;12.30;;
20179;SDS011;10249;48.900;9.090;2023-03-14T10:44:22;12.50;;;12.00;;
20179;SDS011;10249;48.900;9.090;2023-03-14T10:46:55;12.10;;;11.60;;
20179;SDS011;10249;48.900;9.090;2023-03-14T10:49:25;12.13;;;11.63;;
20179;SDS011;10249;48.900;9.090;2023-03-14T10:51:53;12.10;;;11.60;;
20179;SDS011;10249;48.900;9.090;2023-03-14T10:54:20;12.07;;;11.37;;
20179;SDS011;10249;48.900;9.090;2023-03-14T10:56:55;12.00;;;11.50;;
20179;SDS011;10249;48.900;9.090;2023-03-14T10:59:24;11.57;;;11.07;;
20179;SDS011;10249;48.900;9.090;2023-03-14T11:01:54;10.87;;;10.47;;
20179;SDS011;10249;48.900;9.090;2023-03-14T11:04:35;10.80;;;10.40;;
20179;SDS011;10249;48.900;9.090;2023-03-14T11:07:09;10.23;;;9.83;;
20179;SDS011;10249;48.900;9.090;2023-03-14T11:09:41;10.40;;;10.00;;
20179;SDS011;10249;48.900;9.090;2023-03-14T11:12:16;10.40;;;10.00;;
20179;SDS011;10249;48.900;9.090;2023-03-14T11:14:51;10.30;;;9.90;;
20179;SDS011;10249;48.900;9.090;2023-03-14T11:17:22;10.37;;;9.97;;
20179;SDS011;10249;48.900;9.090;2023-03-14T11:19:53;10.40;;;10.00;;
20179;SDS011;10249;48.900;9.090;2023-03-14T11:22:25;10.03;;;9.63;;
20179;SDS011;10249;48.900;9.090;2023-03-14T11:25:12;10.03;;;9.70;;
20179;SDS011;10249;48.900;9.090;2023-03-14T11:27:43;9.67;;;9.37;;
20179;SDS011;10249;48.900;9.090;2023-03-14T11:30:19;9.40;;;9.10;;
20179;SDS011;10249;48.900;9.090;2023-03-14T11:32:48;9.13;;;8.83;;
20179;SDS011;10249;48.900;9.090;2023-03-14T11:35:20;8.87;;;8.57;;
20179;SDS011;10249;48.900;9.090;2023-03-14T11:37:51;8.60;;;8.30;;
20179;SDS011;10249;48.900;9.090;2023-03-14T11:40:19;9.60;;;9.30;;
20179;SDS011;10249;48.900;9.090;2023-03-14T11:42:48;9.50;;;9.20;;
20179;SDS011;10249;48.900;9.090;2023-03-14T11:45:17;10.00;;;9.70;;
20179;SDS011;10249;48.900;9.090;2023-03-14T11:47:47;9.83;;;9.53;;
20179;SDS011;10249;48.900;9.090;2023-03-14T11:50:18;9.93;;;9.53;;
20179;SDS011;10249;48.900;9.090;2023-03-14T11:52:47;9.53;;;9.23;;
20179;SDS011;10249;48.900;9.090;2023-03-14T11:55:17;9.10;;;8.80;;
20179;SDS011;10249;48.900;9.090;2023-03-14T11:57:46;9.53;;;9.13;;
20179;SDS011;10249;48.900;9.090;2023-03-14T12:00:15;9.07;;;8.77;;
20179;SDS011;10249;48.900;9.090;2023-03-14T12:02:45;9.40;;;9.10;;
20179;SDS011;10249;48.900;9.090;2023-03-14T12:05:25;9.77;;;9.47;;
20179;SDS011;10249;48.900;9.090;2023-03-14T12:10:37;9.80;;;9.50;;
20179;SDS011;10249;48.900;9.090;2023-03-14T12:13:06;9.13;;;8.83;;
20179;SDS011;10249;48.900;9.090;2023-03-14T12:15:35;8.90;;;8.60;;
20179;SDS011;10249;48.900;9.090;2023-03-14T12:18:11;8.20;;;7.90;;
20179;SDS011;10249;48.900;9.090;2023-03-14T12:20:42;7.37;;;7.17;;
20179;SDS011;10249;48.900;9.090;2023-03-14T12:23:17;7.93;;;7.63;;
20179;SDS011;10249;48.900;9.090;2023-03-14T12:25:45;8.53;;;8.23;;
20179;SDS011;10249;48.900;9.090;2023-03-14T12:28:18;8.50;;;8.20;;
20179;SDS011;10249;48.900;9.090;2023-03-14T12:30:46;7.90;;;7.60;;
20179;SDS011;10249;48.900;9.090;2023-03-14T12:33:19;8.20;;;7.90;;
20179;SDS011;10249;48.900;9.090;2023-03-14T12:35:49;8.10;;;7.80;;
20179;SDS011;10249;48.900;9.090;2023-03-14T12:38:18;9.50;;;9.00;;
20179;SDS011;10249;48.900;9.090;2023-03-14T12:40:52;10.77;;;10.37;;
20179;SDS011;10249;48.900;9.090;2023-03-14T12:43:24;11.40;;;10.90;;
20179;SDS011;10249;48.900;9.090;2023-03-14T12:46:07;11.90;;;11.40;;
20179;SDS011;10249;48.900;9.090;2023-03-14T12:48:34;12.00;;;11.50;;
20179;SDS011;10249;48.900;9.090;2023-03-14T12:51:03;12.33;;;11.83;;
20179;SDS011;10249;48.900;9.090;2023-03-14T12:56:21;13.93;;;13.30;;
20179;SDS011;10249;48.900;9.090;2023-03-14T12:58:53;13.77;;;13.07;;
20179;SDS011;10249;48.900;9.090;2023-03-14T13:01:21;13.90;;;13.10;;
20179;SDS011;10249;48.900;9.090;2023-03-14T13:03:49;14.10;;;13.30;;
20179;SDS011;10249;48.900;9.090;2023-03-14T13:11:48;14.53;;;13.70;;
20179;SDS011;10249;48.900;9.090;2023-03-14T13:14:15;14.07;;;13.37;;
20179;SDS011;10249;48.900;9.090;2023-03-14T13:16:42;15.00;;;14.20;;
20179;SDS011;10249;48.900;9.090;2023-03-14T13:19:11;14.90;;;14.13;;
20179;SDS011;10249;48.900;9.090;2023-03-14T13:21:40;15.33;;;14.53;;
20179;SDS011;10249;48.900;9.090;2023-03-14T13:24:20;14.73;;;14.00;;
20179;SDS011;10249;48.900;9.090;2023-03-14T13:26:48;15.10;;;14.30;;
20179;SDS011;10249;48.900;9.090;2023-03-14T13:29:16;15.30;;;14.50;;
20179;SDS011;10249;48.900;9.090;2023-03-14T13:31:45;15.17;;;14.37;;
20179;SDS011;10249;48.900;9.090;2023-03-14T13:34:13;15.30;;;14.50;;
20179;SDS011;10249;48.900;9.090;2023-03-14T13:36:40;15.70;;;14.80;;
20179;SDS011;10249;48.900;9.090;2023-03-14T13:39:09;16.10;;;15.03;;
20179;SDS011;10249;48.900;9.090;2023-03-14T13:41:38;15.93;;;15.03;;
20179;SDS011;10249;48.900;9.090;2023-03-14T13:44:06;16.00;;;15.00;;
20179;SDS011;10249;48.900;9.090;2023-03-14T13:46:34;15.80;;;14.90;;
20179;SDS011;10249;48.900;9.090;2023-03-14T13:49:02;16.17;;;15.27;;
20179;SDS011;10249;48.900;9.090;2023-03-14T13:51:30;15.63;;;14.77;;
20179;SDS011;10249;48.900;9.090;2023-03-14T13:53:59;15.43;;;14.63;;
20179;SDS011;10249;48.900;9.090;2023-03-14T13:56:26;15.37;;;14.57;;
20179;SDS011;10249;48.900;9.090;2023-03-14T13:58:54;15.57;;;14.70;;
20179;SDS011;10249;48.900;9.090;2023-03-14T14:01:23;15.30;;;14.50;;
20179;SDS011;10249;48.900;9.090;2023-03-14T14:03:52;15.50;;;14.70;;
20179;SDS011;10249;48.900;9.090;2023-03-14T14:06:23;15.57;;;14.67;;
20179;SDS011;10249;48.900;9.090;2023-03-14T14:08:52;15.30;;;14.50;;
20179;SDS011;10249;48.900;9.090;2023-03-14T14:11:21;15.70;;;14.90;;
20179;SDS011;10249;48.900;9.090;2023-03-14T14:13:49;16.10;;;15.00;;
20179;SDS011;10249;48.900;9.090;2023-03-14T14:16:16;15.70;;;14.90;;
20179;SDS011;10249;48.900;9.090;2023-03-14T14:18:47;16.60;;;15.50;;
20179;SDS011;10249;48.900;9.090;2023-03-14T14:21:14;16.30;;;15.30;;
20179;SDS011;10249;48.900;9.090;2023-03-14T14:23:42;16.33;;;15.33;;
20179;SDS011;10249;48.900;9.090;2023-03-14T14:26:13;16.00;;;15.03;;
20179;SDS011;10249;48.900;9.090;2023-03-14T14:28:41;16.60;;;15.50;;
20179;SDS011;10249;48.900;9.090;2023-03-14T14:31:18;16.17;;;15.17;;
20179;SDS011;10249;48.900;9.090;2023-03-14T14:33:53;16.67;;;15.57;;
20179;SDS011;10249;48.900;9.090;2023-03-14T14:36:21;16.50;;;15.40;;
20179;SDS011;10249;48.900;9.090;2023-03-14T14:38:50;16.40;;;15.50;;
20179;SDS011;10249;48.900;9.090;2023-03-14T14:41:17;16.80;;;15.70;;
20179;SDS011;10249;48.900;9.090;2023-03-14T14:43:44;16.77;;;15.60;;
20179;SDS011;10249;48.900;9.090;2023-03-14T14:46:13;16.53;;;15.53;;
20179;SDS011;10249;48.900;9.090;2023-03-14T14:48:42;16.40;;;15.40;;
20179;SDS011;10249;48.900;9.090;2023-03-14T14:51:11;16.70;;;15.50;;
20179;SDS011;10249;48.900;9.090;2023-03-14T14:53:48;16.10;;;15.20;;